sensor_id;sensor_type;location;lat;lon;timestamp;temperature;humidity
41547;DHT22;27271;45.412;10.852;2023-02-28T00:01:38;4.00;1.00
41547;DHT22;27271;45.412;10.852;2023-02-28T00:05:01;4.00;1.00
41547;DHT22;27271;45.412;10.852;2023-02-28T00:08:25;4.00;1.00
41547;DHT22;27271;45.412;10.852;2023-02-28T00:11:47;3.90;1.00
41547;DHT22;27271;45.412;10.852;2023-02-28T00:15:10;3.80;1.00
41547;DHT22;27271;45.412;10.852;2023-02-28T00:18:32;3.80;1.00
41547;DHT22;27271;45.412;10.852;2023-02-28T00:21:54;3.70;1.00
41547;DHT22;27271;45.412;10.852;2023-02-28T00:25:19;3.60;1.00
41547;DHT22;27271;45.412;10.852;2023-02-28T00:28:41;3.60;1.00
41547;DHT22;27271;45.412;10.852;2023-02-28T00:32:04;3.50;1.00
41547;DHT22;27271;45.412;10.852;2023-02-28T00:35:26;3.60;1.00
41547;DHT22;27271;45.412;10.852;2023-02-28T00:38:48;3.60;1.00
41547;DHT22;27271;45.412;10.852;2023-02-28T00:42:10;3.70;1.00
41547;DHT22;27271;45.412;10.852;2023-02-28T00:45:32;3.80;1.00
41547;DHT22;27271;45.412;10.852;2023-02-28T00:48:54;3.90;1.00
41547;DHT22;27271;45.412;10.852;2023-02-28T00:52:16;3.80;1.00
41547;DHT22;27271;45.412;10.852;2023-02-28T00:55:38;3.90;1.00
41547;DHT22;27271;45.412;10.852;2023-02-28T00:59:01;3.90;1.00
41547;DHT22;27271;45.412;10.852;2023-02-28T01:02:28;3.90;1.00
41547;DHT22;27271;45.412;10.852;2023-02-28T01:05:54;4.00;1.00
41547;DHT22;27271;45.412;10.852;2023-02-28T01:09:16;4.00;1.00
41547;DHT22;27271;45.412;10.852;2023-02-28T01:12:38;4.00;1.00
41547;DHT22;27271;45.412;10.852;2023-02-28T01:16:02;3.90;1.00
41547;DHT22;27271;45.412;10.852;2023-02-28T01:19:24;3.80;1.00
41547;DHT22;27271;45.412;10.852;2023-02-28T01:22:46;3.80;1.00
41547;DHT22;27271;45.412;10.852;2023-02-28T01:26:14;3.80;1.00
41547;DHT22;27271;45.412;10.852;2023-02-28T01:29:37;3.80;1.00
41547;DHT22;27271;45.412;10.852;2023-02-28T01:32:59;3.80;1.00
41547;DHT22;27271;45.412;10.852;2023-02-28T01:36:23;3.70;1.00
41547;DHT22;27271;45.412;10.852;2023-02-28T01:39:46;3.60;1.00
41547;DHT22;27271;45.412;10.852;2023-02-28T01:43:23;3.60;1.00
41547;DHT22;27271;45.412;10.852;2023-02-28T01:46:45;3.60;1.00
41547;DHT22;27271;45.412;10.852;2023-02-28T01:50:13;3.50;1.00
41547;DHT22;27271;45.412;10.852;2023-02-28T01:53:41;3.40;1.00
41547;DHT22;27271;45.412;10.852;2023-02-28T01:57:08;3.30;1.00
41547;DHT22;27271;45.412;10.852;2023-02-28T02:00:31;3.20;1.00
41547;DHT22;27271;45.412;10.852;2023-02-28T02:03:56;3.20;1.00
41547;DHT22;27271;45.412;10.852;2023-02-28T02:07:20;3.10;1.00
41547;DHT22;27271;45.412;10.852;2023-02-28T02:10:54;3.10;1.00
41547;DHT22;27271;45.412;10.852;2023-02-28T02:15:16;3.10;1.00
41547;DHT22;27271;45.412;10.852;2023-02-28T02:18:47;3.10;1.00
41547;DHT22;27271;45.412;10.852;2023-02-28T02:45:14;3.70;1.00
41547;DHT22;27271;45.412;10.852;2023-02-28T02:48:29;3.70;1.00
41547;DHT22;27271;45.412;10.852;2023-02-28T02:51:53;3.70;1.00
41547;DHT22;27271;45.412;10.852;2023-02-28T02:55:17;3.80;1.00
41547;DHT22;27271;45.412;10.852;2023-02-28T02:58:42;3.80;1.00
41547;DHT22;27271;45.412;10.852;2023-02-28T03:02:08;3.80;1.00
41547;DHT22;27271;45.412;10.852;2023-02-28T03:05:39;3.80;1.00
41547;DHT22;27271;45.412;10.852;2023-02-28T03:09:04;3.90;1.00
41547;DHT22;27271;45.412;10.852;2023-02-28T03:12:40;3.80;1.00
41547;DHT22;27271;45.412;10.852;2023-02-28T03:20:16;3.80;1.00
41547;DHT22;27271;45.412;10.852;2023-02-28T03:27:41;3.70;1.00
41547;DHT22;27271;45.412;10.852;2023-02-28T03:35:08;3.60;1.00
41547;DHT22;27271;45.412;10.852;2023-02-28T03:38:38;3.60;1.00
41547;DHT22;27271;45.412;10.852;2023-02-28T03:42:14;3.60;1.00
41547;DHT22;27271;45.412;10.852;2023-02-28T03:45:38;3.60;1.00
41547;DHT22;27271;45.412;10.852;2023-02-28T03:49:06;3.50;1.00
41547;DHT22;27271;45.412;10.852;2023-02-28T03:52:34;3.50;1.00
41547;DHT22;27271;45.412;10.852;2023-02-28T03:56:19;3.40;1.00
41547;DHT22;27271;45.412;10.852;2023-02-28T03:59:46;3.40;1.00
41547;DHT22;27271;45.412;10.852;2023-02-28T04:03:09;3.30;1.00
41547;DHT22;27271;45.412;10.852;2023-02-28T04:06:32;3.20;1.00
41547;DHT22;27271;45.412;10.852;2023-02-28T04:09:55;3.10;1.00
41547;DHT22;27271;45.412;10.852;2023-02-28T04:13:17;3.10;1.00
41547;DHT22;27271;45.412;10.852;2023-02-28T04:16:41;3.10;1.00
41547;DHT22;27271;45.412;10.852;2023-02-28T04:20:04;3.00;1.00
41547;DHT22;27271;45.412;10.852;2023-02-28T04:23:31;2.90;1.00
41547;DHT22;27271;45.412;10.852;2023-02-28T04:26:55;2.70;1.00
41547;DHT22;27271;45.412;10.852;2023-02-28T04:30:17;2.50;1.00
41547;DHT22;27271;45.412;10.852;2023-02-28T04:33:39;2.30;1.00
41547;DHT22;27271;45.412;10.852;2023-02-28T04:37:01;2.20;1.00
41547;DHT22;27271;45.412;10.852;2023-02-28T04:40:35;2.20;1.00
41547;DHT22;27271;45.412;10.852;2023-02-28T04:43:57;2.20;1.00
41547;DHT22;27271;45.412;10.852;2023-02-28T04:47:19;2.20;1.00
41547;DHT22;27271;45.412;10.852;2023-02-28T04:50:41;2.10;1.00
41547;DHT22;27271;45.412;10.852;2023-02-28T04:54:03;2.10;1.00
41547;DHT22;27271;45.412;10.852;2023-02-28T04:57:25;2.00;1.00
41547;DHT22;27271;45.412;10.852;2023-02-28T05:00:47;1.90;1.00
41547;DHT22;27271;45.412;10.852;2023-02-28T05:04:09;1.80;1.00
41547;DHT22;27271;45.412;10.852;2023-02-28T05:07:31;1.80;1.00
41547;DHT22;27271;45.412;10.852;2023-02-28T05:10:53;1.70;1.00
41547;DHT22;27271;45.412;10.852;2023-02-28T05:14:15;1.70;1.00
41547;DHT22;27271;45.412;10.852;2023-02-28T05:17:37;1.70;1.00
41547;DHT22;27271;45.412;10.852;2023-02-28T05:21:00;1.80;1.00
41547;DHT22;27271;45.412;10.852;2023-02-28T05:24:24;1.80;1.00
41547;DHT22;27271;45.412;10.852;2023-02-28T05:27:46;1.80;1.00
41547;DHT22;27271;45.412;10.852;2023-02-28T05:31:10;1.90;1.00
41547;DHT22;27271;45.412;10.852;2023-02-28T05:34:32;2.00;1.00
41547;DHT22;27271;45.412;10.852;2023-02-28T05:37:55;2.10;1.00
41547;DHT22;27271;45.412;10.852;2023-02-28T05:41:18;2.20;1.00
41547;DHT22;27271;45.412;10.852;2023-02-28T05:44:41;2.30;1.00
41547;DHT22;27271;45.412;10.852;2023-02-28T05:48:03;2.20;1.00
41547;DHT22;27271;45.412;10.852;2023-02-28T05:51:26;2.20;1.00
41547;DHT22;27271;45.412;10.852;2023-02-28T05:54:49;2.20;1.00
41547;DHT22;27271;45.412;10.852;2023-02-28T05:58:11;2.10;1.00
41547;DHT22;27271;45.412;10.852;2023-02-28T06:01:44;2.10;1.00
41547;DHT22;27271;45.412;10.852;2023-02-28T06:05:15;2.00;1.00
41547;DHT22;27271;45.412;10.852;2023-02-28T06:08:38;2.10;1.00
41547;DHT22;27271;45.412;10.852;2023-02-28T06:12:01;2.10;1.00
41547;DHT22;27271;45.412;10.852;2023-02-28T06:15:25;2.10;1.00
41547;DHT22;27271;45.412;10.852;2023-02-28T06:18:47;2.10;1.00
41547;DHT22;27271;45.412;10.852;2023-02-28T06:22:09;2.30;1.00
41547;DHT22;27271;45.412;10.852;2023-02-28T06:25:31;2.40;1.00
41547;DHT22;27271;45.412;10.852;2023-02-28T06:28:54;2.50;1.00
41547;DHT22;27271;45.412;10.852;2023-02-28T06:32:16;2.60;1.00
41547;DHT22;27271;45.412;10.852;2023-02-28T06:35:38;2.70;1.00
41547;DHT22;27271;45.412;10.852;2023-02-28T06:39:01;2.90;1.00
41547;DHT22;27271;45.412;10.852;2023-02-28T06:42:24;3.10;1.00
41547;DHT22;27271;45.412;10.852;2023-02-28T06:45:50;3.20;1.00
41547;DHT22;27271;45.412;10.852;2023-02-28T06:49:12;3.50;1.00
41547;DHT22;27271;45.412;10.852;2023-02-28T06:52:34;3.90;1.00
41547;DHT22;27271;45.412;10.852;2023-02-28T06:55:59;4.10;1.00
41547;DHT22;27271;45.412;10.852;2023-02-28T06:59:21;4.30;1.00
41547;DHT22;27271;45.412;10.852;2023-02-28T07:02:43;4.50;1.00
41547;DHT22;27271;45.412;10.852;2023-02-28T07:06:05;4.70;1.00
41547;DHT22;27271;45.412;10.852;2023-02-28T07:09:27;4.90;1.00
41547;DHT22;27271;45.412;10.852;2023-02-28T07:12:51;5.10;1.00
41547;DHT22;27271;45.412;10.852;2023-02-28T07:16:13;5.30;1.00
41547;DHT22;27271;45.412;10.852;2023-02-28T07:19:36;5.70;1.00
41547;DHT22;27271;45.412;10.852;2023-02-28T07:22:58;5.90;1.00
41547;DHT22;27271;45.412;10.852;2023-02-28T07:26:20;6.20;1.00
41547;DHT22;27271;45.412;10.852;2023-02-28T07:29:42;7.40;1.00
41547;DHT22;27271;45.412;10.852;2023-02-28T07:33:04;8.60;1.00
41547;DHT22;27271;45.412;10.852;2023-02-28T07:36:27;9.20;1.00
41547;DHT22;27271;45.412;10.852;2023-02-28T07:39:49;9.80;1.00
41547;DHT22;27271;45.412;10.852;2023-02-28T07:43:11;10.60;1.00
41547;DHT22;27271;45.412;10.852;2023-02-28T07:46:36;10.80;1.00
41547;DHT22;27271;45.412;10.852;2023-02-28T07:49:58;11.30;1.00
41547;DHT22;27271;45.412;10.852;2023-02-28T07:53:20;11.60;1.00
41547;DHT22;27271;45.412;10.852;2023-02-28T07:56:42;12.20;1.00
41547;DHT22;27271;45.412;10.852;2023-02-28T08:00:06;12.10;1.00
41547;DHT22;27271;45.412;10.852;2023-02-28T08:03:35;12.10;1.00
41547;DHT22;27271;45.412;10.852;2023-02-28T08:06:57;12.10;1.00
41547;DHT22;27271;45.412;10.852;2023-02-28T08:10:20;12.30;1.00
41547;DHT22;27271;45.412;10.852;2023-02-28T08:13:43;11.60;1.00
41547;DHT22;27271;45.412;10.852;2023-02-28T08:17:06;12.60;1.00
41547;DHT22;27271;45.412;10.852;2023-02-28T08:20:29;12.70;1.00
41547;DHT22;27271;45.412;10.852;2023-02-28T08:23:51;12.70;1.00
41547;DHT22;27271;45.412;10.852;2023-02-28T08:27:13;13.80;1.00
41547;DHT22;27271;45.412;10.852;2023-02-28T08:30:35;13.00;1.00
41547;DHT22;27271;45.412;10.852;2023-02-28T08:33:58;12.10;1.00
41547;DHT22;27271;45.412;10.852;2023-02-28T08:37:21;12.60;1.00
41547;DHT22;27271;45.412;10.852;2023-02-28T08:40:43;12.50;1.00
41547;DHT22;27271;45.412;10.852;2023-02-28T08:44:05;12.60;1.00
41547;DHT22;27271;45.412;10.852;2023-02-28T08:47:27;12.40;1.00
41547;DHT22;27271;45.412;10.852;2023-02-28T08:51:00;12.50;1.00
41547;DHT22;27271;45.412;10.852;2023-02-28T08:54:29;12.80;1.00
41547;DHT22;27271;45.412;10.852;2023-02-28T08:57:53;11.90;1.00
41547;DHT22;27271;45.412;10.852;2023-02-28T09:01:19;11.40;1.00
41547;DHT22;27271;45.412;10.852;2023-02-28T09:04:41;11.30;1.00
41547;DHT22;27271;45.412;10.852;2023-02-28T09:08:03;12.10;1.00
41547;DHT22;27271;45.412;10.852;2023-02-28T09:11:26;12.70;1.00
41547;DHT22;27271;45.412;10.852;2023-02-28T09:14:51;12.80;1.00
41547;DHT22;27271;45.412;10.852;2023-02-28T09:18:13;12.60;1.00
41547;DHT22;27271;45.412;10.852;2023-02-28T09:21:36;12.30;1.00
41547;DHT22;27271;45.412;10.852;2023-02-28T09:24:58;12.80;1.00
41547;DHT22;27271;45.412;10.852;2023-02-28T09:28:21;12.50;1.00
41547;DHT22;27271;45.412;10.852;2023-02-28T09:31:43;13.00;1.00
41547;DHT22;27271;45.412;10.852;2023-02-28T09:35:06;13.00;1.00
41547;DHT22;27271;45.412;10.852;2023-02-28T09:38:28;13.00;1.00
41547;DHT22;27271;45.412;10.852;2023-02-28T09:41:52;12.70;1.00
41547;DHT22;27271;45.412;10.852;2023-02-28T09:45:29;13.40;1.00
41547;DHT22;27271;45.412;10.852;2023-02-28T09:48:55;14.40;1.00
41547;DHT22;27271;45.412;10.852;2023-02-28T09:52:20;14.10;1.00
41547;DHT22;27271;45.412;10.852;2023-02-28T09:55:51;13.30;1.00
41547;DHT22;27271;45.412;10.852;2023-02-28T10:00:02;13.70;1.00
41547;DHT22;27271;45.412;10.852;2023-02-28T10:03:38;12.70;1.00
41547;DHT22;27271;45.412;10.852;2023-02-28T10:07:03;13.60;1.00
41547;DHT22;27271;45.412;10.852;2023-02-28T10:10:38;13.40;1.00
41547;DHT22;27271;45.412;10.852;2023-02-28T10:14:05;14.00;1.00
41547;DHT22;27271;45.412;10.852;2023-02-28T10:17:38;13.90;1.00
41547;DHT22;27271;45.412;10.852;2023-02-28T10:21:38;14.90;1.00
41547;DHT22;27271;45.412;10.852;2023-02-28T10:25:17;14.40;1.00
41547;DHT22;27271;45.412;10.852;2023-02-28T10:28:39;13.90;1.00
41547;DHT22;27271;45.412;10.852;2023-02-28T10:32:03;14.20;1.00
41547;DHT22;27271;45.412;10.852;2023-02-28T10:35:27;15.50;1.00
41547;DHT22;27271;45.412;10.852;2023-02-28T10:38:49;15.30;1.00
41547;DHT22;27271;45.412;10.852;2023-02-28T10:42:29;15.30;1.00
41547;DHT22;27271;45.412;10.852;2023-02-28T10:46:11;15.40;1.00
41547;DHT22;27271;45.412;10.852;2023-02-28T10:49:36;15.20;1.00
41547;DHT22;27271;45.412;10.852;2023-02-28T10:57:08;14.30;1.00
41547;DHT22;27271;45.412;10.852;2023-02-28T11:00:35;13.10;1.00
41547;DHT22;27271;45.412;10.852;2023-02-28T11:03:58;13.70;1.00
41547;DHT22;27271;45.412;10.852;2023-02-28T11:07:23;13.80;1.00
41547;DHT22;27271;45.412;10.852;2023-02-28T11:11:06;13.50;1.00
41547;DHT22;27271;45.412;10.852;2023-02-28T11:14:31;13.10;1.00
41547;DHT22;27271;45.412;10.852;2023-02-28T11:21:57;12.80;1.00
41547;DHT22;27271;45.412;10.852;2023-02-28T11:25:27;13.60;1.00
41547;DHT22;27271;45.412;10.852;2023-02-28T11:29:16;13.00;1.00
41547;DHT22;27271;45.412;10.852;2023-02-28T11:32:48;12.10;1.00
41547;DHT22;27271;45.412;10.852;2023-02-28T11:39:43;12.60;1.00
41547;DHT22;27271;45.412;10.852;2023-02-28T11:47:17;13.80;1.00
41547;DHT22;27271;45.412;10.852;2023-02-28T11:51:10;14.40;1.00
41547;DHT22;27271;45.412;10.852;2023-02-28T12:20:30;11.80;1.00
41547;DHT22;27271;45.412;10.852;2023-02-28T12:24:01;12.00;1.00
41547;DHT22;27271;45.412;10.852;2023-02-28T12:27:28;12.70;1.00
41547;DHT22;27271;45.412;10.852;2023-02-28T12:34:47;13.80;1.00
41547;DHT22;27271;45.412;10.852;2023-02-28T12:38:25;13.90;1.00
41547;DHT22;27271;45.412;10.852;2023-02-28T12:41:56;14.10;1.00
41547;DHT22;27271;45.412;10.852;2023-02-28T12:45:26;14.20;1.00
41547;DHT22;27271;45.412;10.852;2023-02-28T12:49:08;14.30;1.00
41547;DHT22;27271;45.412;10.852;2023-02-28T12:52:35;14.20;1.00
41547;DHT22;27271;45.412;10.852;2023-02-28T12:56:14;13.50;1.00
41547;DHT22;27271;45.412;10.852;2023-02-28T13:03:21;12.60;1.00
41547;DHT22;27271;45.412;10.852;2023-02-28T13:10:08;12.10;1.00
41547;DHT22;27271;45.412;10.852;2023-02-28T13:13:31;12.10;1.00
41547;DHT22;27271;45.412;10.852;2023-02-28T13:20:24;12.00;1.00
41547;DHT22;27271;45.412;10.852;2023-02-28T13:27:35;11.50;1.00
41547;DHT22;27271;45.412;10.852;2023-02-28T13:34:21;11.30;1.00
41547;DHT22;27271;45.412;10.852;2023-02-28T13:37:44;11.50;1.00
41547;DHT22;27271;45.412;10.852;2023-02-28T13:48:28;12.00;1.00
41547;DHT22;27271;45.412;10.852;2023-02-28T14:06:32;12.10;1.00
41547;DHT22;27271;45.412;10.852;2023-02-28T14:10:03;12.00;1.00
41547;DHT22;27271;45.412;10.852;2023-02-28T14:13:42;12.40;1.00
41547;DHT22;27271;45.412;10.852;2023-02-28T14:17:14;12.10;1.00
41547;DHT22;27271;45.412;10.852;2023-02-28T14:20:40;11.90;1.00
41547;DHT22;27271;45.412;10.852;2023-02-28T14:31:58;11.00;1.00
41547;DHT22;27271;45.412;10.852;2023-02-28T14:38:52;10.40;1.00
41547;DHT22;27271;45.412;10.852;2023-02-28T14:42:33;10.60;1.00
41547;DHT22;27271;45.412;10.852;2023-02-28T14:46:01;10.70;1.00
41547;DHT22;27271;45.412;10.852;2023-02-28T14:49:44;10.70;1.00
41547;DHT22;27271;45.412;10.852;2023-02-28T14:53:17;10.70;1.00
41547;DHT22;27271;45.412;10.852;2023-02-28T14:56:48;10.40;1.00
41547;DHT22;27271;45.412;10.852;2023-02-28T15:00:15;10.40;1.00
41547;DHT22;27271;45.412;10.852;2023-02-28T15:03:39;10.50;1.00
41547;DHT22;27271;45.412;10.852;2023-02-28T15:07:13;10.40;1.00
41547;DHT22;27271;45.412;10.852;2023-02-28T15:10:35;10.40;1.00
41547;DHT22;27271;45.412;10.852;2023-02-28T15:14:01;10.50;1.00
41547;DHT22;27271;45.412;10.852;2023-02-28T15:17:24;10.40;1.00
41547;DHT22;27271;45.412;10.852;2023-02-28T15:20:47;10.30;1.00
41547;DHT22;27271;45.412;10.852;2023-02-28T15:24:38;10.20;1.00
41547;DHT22;27271;45.412;10.852;2023-02-28T15:28:00;10.20;1.00
41547;DHT22;27271;45.412;10.852;2023-02-28T15:31:32;10.00;1.00
41547;DHT22;27271;45.412;10.852;2023-02-28T15:38:51;10.00;1.00
41547;DHT22;27271;45.412;10.852;2023-02-28T15:42:22;9.90;1.00
41547;DHT22;27271;45.412;10.852;2023-02-28T15:49:19;9.80;1.00
41547;DHT22;27271;45.412;10.852;2023-02-28T15:52:44;9.70;1.00
41547;DHT22;27271;45.412;10.852;2023-02-28T15:59:55;9.70;1.00
41547;DHT22;27271;45.412;10.852;2023-02-28T16:03:37;9.60;1.00
41547;DHT22;27271;45.412;10.852;2023-02-28T16:10:24;9.40;1.00
41547;DHT22;27271;45.412;10.852;2023-02-28T16:13:47;9.30;1.00
41547;DHT22;27271;45.412;10.852;2023-02-28T16:17:20;9.20;1.00
41547;DHT22;27271;45.412;10.852;2023-02-28T16:20:42;9.00;1.00
41547;DHT22;27271;45.412;10.852;2023-02-28T16:24:06;8.80;1.00
41547;DHT22;27271;45.412;10.852;2023-02-28T16:27:31;8.80;1.00
41547;DHT22;27271;45.412;10.852;2023-02-28T16:30:55;8.60;1.00
41547;DHT22;27271;45.412;10.852;2023-02-28T16:34:17;8.60;1.00
41547;DHT22;27271;45.412;10.852;2023-02-28T16:37:39;8.50;1.00
41547;DHT22;27271;45.412;10.852;2023-02-28T16:41:01;8.50;1.00
41547;DHT22;27271;45.412;10.852;2023-02-28T16:44:28;8.30;1.00
41547;DHT22;27271;45.412;10.852;2023-02-28T16:47:51;8.20;1.00
41547;DHT22;27271;45.412;10.852;2023-02-28T16:51:14;8.10;1.00
41547;DHT22;27271;45.412;10.852;2023-02-28T16:54:38;8.00;1.00
41547;DHT22;27271;45.412;10.852;2023-02-28T16:58:01;7.90;1.00
41547;DHT22;27271;45.412;10.852;2023-02-28T17:01:23;7.70;1.00
41547;DHT22;27271;45.412;10.852;2023-02-28T17:04:45;7.60;1.00
41547;DHT22;27271;45.412;10.852;2023-02-28T17:08:09;7.40;1.00
41547;DHT22;27271;45.412;10.852;2023-02-28T17:11:31;7.30;1.00
41547;DHT22;27271;45.412;10.852;2023-02-28T17:14:54;7.20;1.00
41547;DHT22;27271;45.412;10.852;2023-02-28T17:18:20;7.00;1.00
41547;DHT22;27271;45.412;10.852;2023-02-28T17:21:47;6.80;1.00
41547;DHT22;27271;45.412;10.852;2023-02-28T17:25:11;6.60;1.00
41547;DHT22;27271;45.412;10.852;2023-02-28T17:28:35;6.30;1.00
41547;DHT22;27271;45.412;10.852;2023-02-28T17:32:05;6.10;1.00
41547;DHT22;27271;45.412;10.852;2023-02-28T17:35:38;6.00;1.00
41547;DHT22;27271;45.412;10.852;2023-02-28T17:39:01;5.80;1.00
41547;DHT22;27271;45.412;10.852;2023-02-28T17:42:23;5.70;1.00
41547;DHT22;27271;45.412;10.852;2023-02-28T17:45:45;5.60;1.00
41547;DHT22;27271;45.412;10.852;2023-02-28T17:49:08;5.50;1.00
41547;DHT22;27271;45.412;10.852;2023-02-28T17:52:31;5.40;1.00
41547;DHT22;27271;45.412;10.852;2023-02-28T17:55:58;5.30;1.00
41547;DHT22;27271;45.412;10.852;2023-02-28T17:59:20;5.20;1.00
41547;DHT22;27271;45.412;10.852;2023-02-28T18:02:42;5.20;1.00
41547;DHT22;27271;45.412;10.852;2023-02-28T18:06:05;5.20;1.00
41547;DHT22;27271;45.412;10.852;2023-02-28T18:09:28;5.10;1.00
41547;DHT22;27271;45.412;10.852;2023-02-28T18:12:51;5.10;1.00
41547;DHT22;27271;45.412;10.852;2023-02-28T18:16:14;5.10;1.00
41547;DHT22;27271;45.412;10.852;2023-02-28T18:19:36;4.90;1.00
41547;DHT22;27271;45.412;10.852;2023-02-28T18:23:00;4.90;1.00
41547;DHT22;27271;45.412;10.852;2023-02-28T18:26:22;4.80;1.00
41547;DHT22;27271;45.412;10.852;2023-02-28T18:29:44;4.70;1.00
41547;DHT22;27271;45.412;10.852;2023-02-28T18:33:06;4.60;1.00
41547;DHT22;27271;45.412;10.852;2023-02-28T18:36:28;4.50;1.00
41547;DHT22;27271;45.412;10.852;2023-02-28T18:39:51;4.40;1.00
41547;DHT22;27271;45.412;10.852;2023-02-28T18:43:13;4.40;1.00
41547;DHT22;27271;45.412;10.852;2023-02-28T18:46:35;4.20;1.00
41547;DHT22;27271;45.412;10.852;2023-02-28T18:49:57;4.20;1.00
41547;DHT22;27271;45.412;10.852;2023-02-28T18:53:21;4.10;1.00
41547;DHT22;27271;45.412;10.852;2023-02-28T18:56:43;4.10;1.00
41547;DHT22;27271;45.412;10.852;2023-02-28T19:00:06;4.10;1.00
41547;DHT22;27271;45.412;10.852;2023-02-28T19:03:30;4.00;5.30
41547;DHT22;27271;45.412;10.852;2023-02-28T19:06:52;4.00;20.40
41547;DHT22;27271;45.412;10.852;2023-02-28T19:10:14;3.90;24.10
41547;DHT22;27271;45.412;10.852;2023-02-28T19:13:37;3.80;27.60
41547;DHT22;27271;45.412;10.852;2023-02-28T19:16:59;3.80;53.60
41547;DHT22;27271;45.412;10.852;2023-02-28T19:20:21;3.70;68.80
41547;DHT22;27271;45.412;10.852;2023-02-28T19:23:43;3.60;88.10
41547;DHT22;27271;45.412;10.852;2023-02-28T19:27:05;3.60;99.90
41547;DHT22;27271;45.412;10.852;2023-02-28T19:30:27;3.50;99.90
41547;DHT22;27271;45.412;10.852;2023-02-28T19:33:50;3.50;99.90
41547;DHT22;27271;45.412;10.852;2023-02-28T19:37:13;3.40;99.90
41547;DHT22;27271;45.412;10.852;2023-02-28T19:40:36;3.30;99.90
41547;DHT22;27271;45.412;10.852;2023-02-28T19:43:58;3.30;99.90
41547;DHT22;27271;45.412;10.852;2023-02-28T19:47:20;3.20;99.90
41547;DHT22;27271;45.412;10.852;2023-02-28T19:50:43;3.20;99.90
41547;DHT22;27271;45.412;10.852;2023-02-28T19:54:05;3.10;99.90
41547;DHT22;27271;45.412;10.852;2023-02-28T19:57:27;3.10;99.90
41547;DHT22;27271;45.412;10.852;2023-02-28T20:00:49;3.10;99.90
41547;DHT22;27271;45.412;10.852;2023-02-28T20:04:11;3.10;99.90
41547;DHT22;27271;45.412;10.852;2023-02-28T20:07:34;3.00;99.90
41547;DHT22;27271;45.412;10.852;2023-02-28T20:11:01;2.90;99.90
41547;DHT22;27271;45.412;10.852;2023-02-28T20:14:24;2.80;99.90
41547;DHT22;27271;45.412;10.852;2023-02-28T20:17:46;2.80;99.90
41547;DHT22;27271;45.412;10.852;2023-02-28T20:21:10;2.70;99.90
41547;DHT22;27271;45.412;10.852;2023-02-28T20:24:32;2.70;99.90
41547;DHT22;27271;45.412;10.852;2023-02-28T20:27:54;2.60;99.90
41547;DHT22;27271;45.412;10.852;2023-02-28T20:31:19;2.60;99.90
41547;DHT22;27271;45.412;10.852;2023-02-28T20:34:41;2.60;99.90
41547;DHT22;27271;45.412;10.852;2023-02-28T20:38:03;2.50;99.90
41547;DHT22;27271;45.412;10.852;2023-02-28T20:41:25;2.50;99.90
41547;DHT22;27271;45.412;10.852;2023-02-28T20:44:47;2.50;99.90
41547;DHT22;27271;45.412;10.852;2023-02-28T20:48:09;2.50;99.90
41547;DHT22;27271;45.412;10.852;2023-02-28T20:51:32;2.60;99.90
41547;DHT22;27271;45.412;10.852;2023-02-28T20:54:54;2.50;1.00
41547;DHT22;27271;45.412;10.852;2023-02-28T20:58:17;2.50;99.90
41547;DHT22;27271;45.412;10.852;2023-02-28T21:01:41;2.40;99.90
41547;DHT22;27271;45.412;10.852;2023-02-28T21:05:05;2.40;1.00
41547;DHT22;27271;45.412;10.852;2023-02-28T21:08:28;2.30;1.00
41547;DHT22;27271;45.412;10.852;2023-02-28T21:11:52;2.20;1.00
41547;DHT22;27271;45.412;10.852;2023-02-28T21:15:14;2.20;1.00
41547;DHT22;27271;45.412;10.852;2023-02-28T21:18:38;2.20;1.00
41547;DHT22;27271;45.412;10.852;2023-02-28T21:22:00;2.20;1.00
41547;DHT22;27271;45.412;10.852;2023-02-28T21:25:22;2.10;1.00
41547;DHT22;27271;45.412;10.852;2023-02-28T21:29:03;2.10;1.00
41547;DHT22;27271;45.412;10.852;2023-02-28T21:32:25;2.20;1.00
41547;DHT22;27271;45.412;10.852;2023-02-28T21:35:47;2.20;1.00
41547;DHT22;27271;45.412;10.852;2023-02-28T21:39:17;2.20;1.00
41547;DHT22;27271;45.412;10.852;2023-02-28T21:42:39;2.30;1.00
41547;DHT22;27271;45.412;10.852;2023-02-28T21:46:02;2.40;1.00
41547;DHT22;27271;45.412;10.852;2023-02-28T21:49:24;2.40;1.00
41547;DHT22;27271;45.412;10.852;2023-02-28T21:52:46;2.60;1.00
41547;DHT22;27271;45.412;10.852;2023-02-28T21:56:17;2.70;1.00
41547;DHT22;27271;45.412;10.852;2023-02-28T21:59:39;2.90;99.90
41547;DHT22;27271;45.412;10.852;2023-02-28T22:03:01;3.10;99.90
41547;DHT22;27271;45.412;10.852;2023-02-28T22:06:27;3.20;99.90
41547;DHT22;27271;45.412;10.852;2023-02-28T22:09:50;3.10;99.90
41547;DHT22;27271;45.412;10.852;2023-02-28T22:13:12;3.00;99.90
41547;DHT22;27271;45.412;10.852;2023-02-28T22:16:34;3.00;99.90
41547;DHT22;27271;45.412;10.852;2023-02-28T22:20:11;2.90;99.90
41547;DHT22;27271;45.412;10.852;2023-02-28T22:23:34;3.00;99.90
41547;DHT22;27271;45.412;10.852;2023-02-28T22:26:56;3.00;99.90
41547;DHT22;27271;45.412;10.852;2023-02-28T22:30:19;3.10;99.90
41547;DHT22;27271;45.412;10.852;2023-02-28T22:33:42;3.10;99.90
41547;DHT22;27271;45.412;10.852;2023-02-28T22:37:04;3.00;99.90
41547;DHT22;27271;45.412;10.852;2023-02-28T22:40:26;2.90;99.90
41547;DHT22;27271;45.412;10.852;2023-02-28T22:43:56;2.90;99.90
41547;DHT22;27271;45.412;10.852;2023-02-28T22:47:19;2.70;99.90
41547;DHT22;27271;45.412;10.852;2023-02-28T22:50:42;2.60;99.90
41547;DHT22;27271;45.412;10.852;2023-02-28T22:54:05;2.40;99.90
41547;DHT22;27271;45.412;10.852;2023-02-28T22:57:27;2.40;99.90
41547;DHT22;27271;45.412;10.852;2023-02-28T23:00:49;2.30;1.00
41547;DHT22;27271;45.412;10.852;2023-02-28T23:04:11;2.20;1.00
41547;DHT22;27271;45.412;10.852;2023-02-28T23:07:33;2.10;1.00
41547;DHT22;27271;45.412;10.852;2023-02-28T23:10:55;2.20;32.40
41547;DHT22;27271;45.412;10.852;2023-02-28T23:14:18;2.20;1.00
41547;DHT22;27271;45.412;10.852;2023-02-28T23:17:40;2.30;1.00
41547;DHT22;27271;45.412;10.852;2023-02-28T23:21:02;2.30;1.00
41547;DHT22;27271;45.412;10.852;2023-02-28T23:24:27;2.30;1.00
41547;DHT22;27271;45.412;10.852;2023-02-28T23:27:49;2.30;1.00
41547;DHT22;27271;45.412;10.852;2023-02-28T23:31:11;2.30;1.00
41547;DHT22;27271;45.412;10.852;2023-02-28T23:34:33;2.30;1.00
41547;DHT22;27271;45.412;10.852;2023-02-28T23:37:56;2.30;1.00
41547;DHT22;27271;45.412;10.852;2023-02-28T23:41:20;2.30;1.00
41547;DHT22;27271;45.412;10.852;2023-02-28T23:44:42;2.20;1.00
41547;DHT22;27271;45.412;10.852;2023-02-28T23:48:05;2.20;1.00
41547;DHT22;27271;45.412;10.852;2023-02-28T23:51:26;2.20;1.00
41547;DHT22;27271;45.412;10.852;2023-02-28T23:54:49;2.20;1.00
41547;DHT22;27271;45.412;10.852;2023-02-28T23:58:11;2.30;1.00
